Time;durP1;ratioP1;P1;durP2;ratioP2;P2;SDS_P1;SDS_P2;PMS_P1;PMS_P2;Temp;Humidity;BMP_temperature;BMP_pressure;BME280_temperature;BME280_humidity;BME280_pressure;Samples;Min_cycle;Max_cycle;Signal;HPM_P1;HPM_P2
2023/08/28 00:03:28;;;;;;;18.25;9.48;;;12.10;99.90;;;;;;6245383;23;20254;-88
2023/08/28 00:06:00;;;;;;;16.80;9.30;;;11.90;99.90;;;;;;6242077;23;20020;-88
2023/08/28 00:08:46;;;;;;;16.33;9.43;;;11.90;99.90;;;;;;6244180;23;20016;-89
2023/08/28 00:14:21;;;;;;;14.63;8.70;;;12.00;99.90;;;;;;6238260;22;20034;-88
2023/08/28 00:17:27;;;;;;;15.40;8.73;;;11.60;99.90;;;;;;6243782;23;20054;-88
2023/08/28 00:20:18;;;;;;;16.05;8.85;;;12.70;99.90;;;;;;6170825;22;20020;-88
2023/08/28 00:22:47;;;;;;;16.63;8.63;;;11.70;99.90;;;;;;6276176;22;20068;-88
2023/08/28 00:26:19;;;;;;;17.17;9.60;;;12.00;99.90;;;;;;6248642;22;20027;-88
2023/08/28 00:29:39;;;;;;;17.20;10.00;;;11.70;99.90;;;;;;6248274;22;20451;-87
2023/08/28 00:32:55;;;;;;;18.73;11.13;;;12.00;99.90;;;;;;6275904;22;20020;-87
2023/08/28 00:39:05;;;;;;;18.27;9.05;;;11.90;99.90;;;;;;6213114;23;20016;-87
2023/08/28 00:41:37;;;;;;;20.08;9.93;;;11.90;99.90;;;;;;6187536;23;20467;-88
2023/08/28 00:44:24;;;;;;;16.17;9.10;;;11.90;99.90;;;;;;6215269;23;20084;-87
2023/08/28 00:47:02;;;;;;;18.17;9.95;;;11.80;99.90;;;;;;6212670;23;20024;-87
2023/08/28 00:49:34;;;;;;;15.57;9.30;;;11.80;99.90;;;;;;6187796;23;20020;-88
2023/08/28 00:52:25;;;;;;;16.40;9.98;;;11.70;99.90;;;;;;6188352;23;20020;-88
2023/08/28 00:55:05;;;;;;;18.55;10.00;;;11.60;99.90;;;;;;6214337;23;20019;-88
2023/08/28 00:57:34;;;;;;;16.55;10.07;;;11.70;99.90;;;;;;6215053;23;20052;-87
2023/08/28 01:00:18;;;;;;;20.25;9.82;;;11.70;99.90;;;;;;6188638;23;20095;-88
2023/08/28 01:02:57;;;;;;;17.75;9.32;;;11.80;99.90;;;;;;6187513;23;20020;-88
2023/08/28 01:05:44;;;;;;;17.17;10.00;;;11.10;99.90;;;;;;6188822;23;20453;-87
2023/08/28 01:09:04;;;;;;;16.05;8.70;;;11.70;99.90;;;;;;6214235;23;20051;-88
2023/08/28 01:11:55;;;;;;;18.15;9.45;;;11.70;99.90;;;;;;6105388;22;20040;-88
2023/08/28 01:15:11;;;;;;;16.58;9.40;;;11.70;99.90;;;;;;6218686;23;20523;-87
2023/08/28 01:21:07;;;;;;;19.95;9.20;;;11.90;99.90;;;;;;6218465;23;20024;-88
2023/08/28 01:24:05;;;;;;;19.30;10.38;;;11.60;99.90;;;;;;6267258;22;20165;-88
2023/08/28 01:26:31;;;;;;;20.40;10.43;;;11.40;99.90;;;;;;6151848;23;20013;-87
2023/08/28 01:29:12;;;;;;;20.45;10.50;;;12.80;99.90;;;;;;6151283;23;20178;-87
2023/08/28 01:31:48;;;;;;;17.27;9.88;;;11.50;99.90;;;;;;6127199;23;20409;-87
2023/08/28 01:34:17;;;;;;;16.92;10.20;;;11.40;99.90;;;;;;6127415;23;20445;-87
2023/08/28 01:36:58;;;;;;;17.58;10.15;;;12.40;99.90;;;;;;6141139;22;20096;-87
2023/08/28 01:39:56;;;;;;;21.73;10.63;;;11.40;99.90;;;;;;6249068;22;20038;-88
2023/08/28 01:42:25;;;;;;;22.70;10.85;;;11.20;99.90;;;;;;6276297;22;20023;-88
2023/08/28 01:44:54;;;;;;;24.02;11.35;;;11.70;99.90;;;;;;6273483;22;20012;-88
2023/08/28 01:47:39;;;;;;;21.95;11.25;;;12.40;99.90;;;;;;6246554;22;20020;-88
2023/08/28 01:50:14;;;;;;;20.30;12.10;;;11.30;99.90;;;;;;6248257;22;20409;-87
2023/08/28 01:53:02;;;;;;;22.35;12.25;;;11.30;99.90;;;;;;6248227;22;20045;-87
2023/08/28 01:55:46;;;;;;;23.17;12.57;;;11.40;99.90;;;;;;6277108;22;20019;-88
2023/08/28 01:58:15;;;;;;;;;;;12.50;99.90;;;;;;6250280;22;20015;-87
2023/08/28 02:01:13;;;;;;;24.65;12.50;;;11.40;99.90;;;;;;6251160;22;19915;-88
2023/08/28 02:04:05;;;;;;;24.63;13.27;;;11.80;99.90;;;;;;6291434;22;20071;-87
2023/08/28 02:06:34;;;;;;;24.58;13.60;;;11.40;99.90;;;;;;6205356;22;20012;-88
2023/08/28 02:09:02;;;;;;;26.13;13.85;;;11.40;99.90;;;;;;6250978;22;20035;-88
2023/08/28 02:11:28;;;;;;;24.70;13.60;;;11.30;99.90;;;;;;6278089;22;20022;-87
2023/08/28 02:14:15;;;;;;;23.77;12.90;;;11.40;99.90;;;;;;6249911;22;20102;-87
2023/08/28 02:16:46;;;;;;;24.65;13.95;;;11.60;99.90;;;;;;6250184;22;20078;-87
2023/08/28 02:19:56;;;;;;;24.90;13.38;;;11.40;99.90;;;;;;6249409;22;20014;-87
2023/08/28 02:22:22;;;;;;;27.88;13.80;;;10.80;99.90;;;;;;6193736;22;20098;-87
2023/08/28 02:25:39;;;;;;;25.70;14.05;;;11.50;99.90;;;;;;6249963;22;20425;-87
2023/08/28 02:28:30;;;;;;;24.85;13.88;;;11.40;99.90;;;;;;6276801;22;20038;-87
2023/08/28 02:31:03;;;;;;;24.88;14.25;;;12.00;99.90;;;;;;6249544;22;20414;-87
2023/08/28 02:33:44;;;;;;;24.13;14.32;;;11.30;99.90;;;;;;6249406;22;20094;-88
2023/08/28 02:36:13;;;;;;;25.98;14.88;;;11.30;99.90;;;;;;6250418;22;20436;-87
2023/08/28 02:38:39;;;;;;;25.10;14.15;;;11.30;99.90;;;;;;6277425;22;20070;-87
2023/08/28 02:41:19;;;;;;;25.50;14.18;;;11.30;99.90;;;;;;6249592;22;20019;-87
2023/08/28 02:43:47;;;;;;;25.48;14.95;;;11.30;99.90;;;;;;6249970;22;20513;-87
2023/08/28 02:46:15;;;;;;;26.70;14.45;;;11.30;99.90;;;;;;6249284;22;20046;-88
2023/08/28 02:48:56;;;;;;;25.20;14.13;;;11.30;99.90;;;;;;6249879;22;20066;-88
2023/08/28 02:51:33;;;;;;;25.88;14.10;;;11.30;99.90;;;;;;6277777;22;20094;-89
2023/08/28 02:54:11;;;;;;;28.85;15.13;;;11.30;99.90;;;;;;6276442;22;20016;-87
2023/08/28 02:56:52;;;;;;;27.58;15.70;;;11.30;99.90;;;;;;6277336;22;20016;-87
2023/08/28 02:59:38;;;;;;;27.15;14.45;;;11.30;99.90;;;;;;6249757;22;20486;-87
2023/08/28 03:02:22;;;;;;;30.95;16.20;;;11.30;99.90;;;;;;6275578;22;20066;-87
2023/08/28 03:05:11;;;;;;;;;;;11.20;99.90;;;;;;6277546;22;20012;-87
2023/08/28 03:07:55;;;;;;;28.83;14.93;;;11.20;99.90;;;;;;6108294;22;20413;-87
2023/08/28 03:10:21;;;;;;;26.52;15.00;;;11.10;99.90;;;;;;6277562;22;20092;-88
2023/08/28 03:12:52;;;;;;;26.92;15.18;;;12.40;99.90;;;;;;6276675;22;20011;-88
2023/08/28 03:15:33;;;;;;;30.05;14.90;;;11.10;99.90;;;;;;6248986;22;20095;-88
2023/08/28 03:18:02;;;;;;;27.15;15.40;;;11.10;99.90;;;;;;6249630;22;20026;-87
2023/08/28 03:20:49;;;;;;;26.48;14.93;;;11.10;99.90;;;;;;6277252;22;20015;-87
2023/08/28 03:23:32;;;;;;;25.67;14.88;;;11.10;99.90;;;;;;6220630;22;20069;-87
2023/08/28 03:26:04;;;;;;;30.25;15.65;;;11.10;99.90;;;;;;6189172;23;20017;-87
2023/08/28 03:28:30;;;;;;;27.48;16.02;;;11.10;99.90;;;;;;6188217;23;20027;-87
2023/08/28 03:31:41;;;;;;;31.02;16.23;;;12.30;99.90;;;;;;6215705;23;20009;-87
2023/08/28 03:34:18;;;;;;;26.58;14.60;;;11.10;99.90;;;;;;6216072;23;20024;-88
2023/08/28 03:37:02;;;;;;;24.23;14.70;;;11.10;99.90;;;;;;6213983;23;20410;-88
2023/08/28 03:39:43;;;;;;;;;;;10.50;99.90;;;;;;6189931;23;20404;-88
2023/08/28 03:42:08;;;;;;;27.00;14.80;;;10.80;99.90;;;;;;6215913;23;19923;-88
2023/08/28 03:44:41;;;;;;;28.77;15.13;;;11.10;99.90;;;;;;6187211;23;20028;-88
2023/08/28 03:47:19;;;;;;;34.47;16.30;;;11.10;99.90;;;;;;6138441;23;20090;-87
2023/08/28 03:49:55;;;;;;;31.80;14.95;;;11.10;99.90;;;;;;6214765;23;20324;-88
2023/08/28 03:52:21;;;;;;;31.58;16.35;;;11.10;99.90;;;;;;6189091;23;20028;-87
2023/08/28 03:55:08;;;;;;;30.52;16.42;;;12.20;99.90;;;;;;6205696;22;20024;-88
2023/08/28 03:57:40;;;;;;;31.23;17.33;;;11.00;99.90;;;;;;6244994;23;20016;-88
2023/08/28 04:00:10;;;;;;;29.35;15.60;;;11.20;99.90;;;;;;6219762;23;20020;-87
2023/08/28 04:03:04;;;;;;;29.77;17.15;;;11.00;99.90;;;;;;6239392;23;20015;-88
2023/08/28 04:05:45;;;;;;;35.05;16.70;;;10.60;99.90;;;;;;6218179;23;20012;-88
2023/08/28 04:08:25;;;;;;;31.83;16.80;;;10.90;99.90;;;;;;6245491;23;20014;-88
2023/08/28 04:11:00;;;;;;;31.17;16.50;;;10.90;99.90;;;;;;6243570;23;20310;-88
2023/08/28 04:13:26;;;;;;;32.28;16.98;;;10.80;99.90;;;;;;6246594;23;20027;-88
2023/08/28 04:16:05;;;;;;;32.83;16.08;;;10.80;99.90;;;;;;6219196;23;20012;-88
2023/08/28 04:18:53;;;;;;;34.17;17.65;;;10.70;99.90;;;;;;6217759;23;20074;-88
2023/08/28 04:21:21;;;;;;;34.22;17.95;;;10.40;99.90;;;;;;6245498;23;20016;-88
2023/08/28 04:23:47;;;;;;;39.22;18.30;;;10.60;99.90;;;;;;6218485;23;20027;-88
2023/08/28 04:26:35;;;;;;;33.28;15.20;;;11.00;99.90;;;;;;6218127;23;20052;-88
2023/08/28 04:29:00;;;;;;;33.05;16.30;;;10.10;99.90;;;;;;6219308;23;20028;-88
2023/08/28 04:31:47;;;;;;;33.55;16.70;;;10.00;99.90;;;;;;6245955;23;20023;-88
2023/08/28 04:34:14;;;;;;;32.85;16.23;;;11.40;99.90;;;;;;6246681;23;20016;-88
2023/08/28 04:37:06;;;;;;;37.30;16.40;;;10.50;99.90;;;;;;6218803;23;20440;-88
2023/08/28 04:39:39;;;;;;;28.02;14.32;;;10.10;99.90;;;;;;6245588;23;20051;-88
2023/08/28 04:42:39;;;;;;;28.63;15.00;;;11.00;99.90;;;;;;6219252;23;20026;-88
2023/08/28 04:45:55;;;;;;;32.83;15.65;;;10.50;99.90;;;;;;6218120;23;20305;-88
2023/08/28 04:48:38;;;;;;;32.00;15.15;;;10.50;99.90;;;;;;6219954;23;20445;-88
2023/08/28 04:51:10;;;;;;;27.85;14.32;;;10.40;99.90;;;;;;6219164;23;20356;-89
2023/08/28 04:53:47;;;;;;;31.63;15.75;;;10.40;99.90;;;;;;6243707;23;20066;-88
2023/08/28 04:56:17;;;;;;;32.03;14.00;;;10.30;99.90;;;;;;6243778;23;20016;-89
2023/08/28 04:58:59;;;;;;;33.55;15.90;;;10.30;99.90;;;;;;6218456;23;20020;-89
2023/08/28 05:01:38;;;;;;;31.33;15.77;;;10.30;99.90;;;;;;6218782;23;20020;-89
2023/08/28 05:04:05;;;;;;;37.03;15.50;;;11.70;99.90;;;;;;6237592;23;20023;-88
2023/08/28 05:09:20;;;;;;;36.90;16.38;;;10.50;99.90;;;;;;6253386;22;20028;-88
2023/08/28 05:11:47;;;;;;;36.53;15.60;;;10.50;99.90;;;;;;6220208;23;20016;-87
2023/08/28 05:14:22;;;;;;;35.10;15.68;;;11.70;99.90;;;;;;6246811;23;20027;-87
2023/08/28 05:16:50;;;;;;;33.17;15.65;;;10.60;99.90;;;;;;6226621;23;20020;-87
2023/08/28 05:19:33;;;;;;;35.50;16.40;;;10.60;99.90;;;;;;6224361;23;20087;-88
2023/08/28 05:22:19;;;;;;;33.30;15.90;;;10.70;99.90;;;;;;6218286;23;20463;-88
2023/08/28 05:25:06;;;;;;;31.67;15.48;;;10.00;99.90;;;;;;6218102;23;20401;-88
2023/08/28 05:27:46;;;;;;;34.75;16.27;;;10.80;99.90;;;;;;6217932;23;20047;-88
2023/08/28 05:30:27;;;;;;;31.83;16.60;;;11.90;99.90;;;;;;6218983;23;20028;-88
2023/08/28 05:33:11;;;;;;;33.05;15.98;;;11.80;99.90;;;;;;6220336;23;20405;-88
2023/08/28 05:35:41;;;;;;;;;;;11.00;99.90;;;;;;6218430;22;20024;-89
2023/08/28 05:38:22;;;;;;;33.05;16.00;;;10.60;99.90;;;;;;6245422;22;19916;-87
2023/08/28 05:40:47;;;;;;;34.17;16.13;;;11.40;99.90;;;;;;6218235;23;20021;-85
2023/08/28 05:43:13;;;;;;;30.55;15.13;;;11.10;99.90;;;;;;6216734;23;20582;-84
2023/08/28 05:45:51;;;;;;;30.20;16.05;;;12.40;99.90;;;;;;6219367;23;20020;-84
2023/08/28 05:48:17;;;;;;;31.92;16.33;;;12.40;99.90;;;;;;6219342;23;20016;-84
2023/08/28 05:50:49;;;;;;;33.90;15.50;;;11.30;99.90;;;;;;6218207;23;20012;-84
2023/08/28 05:53:29;;;;;;;28.40;14.82;;;11.30;99.90;;;;;;6246413;23;20027;-84
2023/08/28 05:56:07;;;;;;;31.38;15.07;;;11.20;99.90;;;;;;6219777;23;20066;-84
2023/08/28 05:58:32;;;;;;;28.75;14.98;;;11.30;99.90;;;;;;6247179;23;20079;-84
2023/08/28 06:01:10;;;;;;;28.48;15.13;;;11.50;99.90;;;;;;6247122;23;20475;-85
2023/08/28 06:03:36;;;;;;;26.48;14.75;;;11.50;99.90;;;;;;6244017;23;20008;-84
2023/08/28 06:06:02;;;;;;;29.55;14.80;;;11.60;99.90;;;;;;6247091;23;20058;-82
2023/08/28 06:08:42;;;;;;;27.42;14.32;;;11.60;99.90;;;;;;6247026;23;20019;-86
2023/08/28 06:11:20;;;;;;;27.45;14.07;;;12.80;99.90;;;;;;6218529;23;20093;-85
2023/08/28 06:13:46;;;;;;;24.73;13.82;;;11.70;99.90;;;;;;6218247;23;20038;-86
2023/08/28 06:16:20;;;;;;;24.48;13.60;;;13.10;99.90;;;;;;6246948;23;20063;-87
2023/08/28 06:18:46;;;;;;;25.80;13.43;;;11.90;99.90;;;;;;6216590;23;20013;-84
2023/08/28 06:21:26;;;;;;;25.25;13.50;;;13.00;99.90;;;;;;6243179;23;20027;-85
2023/08/28 06:24:13;;;;;;;23.45;12.60;;;12.70;99.90;;;;;;6243557;23;20048;-86
2023/08/28 06:26:41;;;;;;;24.77;13.50;;;12.20;99.90;;;;;;6245045;23;20016;-88
2023/08/28 06:29:07;;;;;;;23.80;13.10;;;12.20;99.90;;;;;;6245370;23;20012;-82
2023/08/28 06:31:41;;;;;;;23.85;12.93;;;12.30;99.90;;;;;;6244118;23;20064;-86
2023/08/28 06:34:22;;;;;;;22.27;12.68;;;12.40;99.90;;;;;;6217686;23;20023;-86
2023/08/28 06:36:55;;;;;;;23.70;12.32;;;12.40;99.90;;;;;;6245690;23;20368;-88
2023/08/28 06:39:56;;;;;;;21.63;11.63;;;12.50;99.90;;;;;;6166735;23;20021;-85
2023/08/28 06:42:25;;;;;;;20.40;11.27;;;12.00;99.90;;;;;;6216122;23;20091;-93
2023/08/28 06:44:51;;;;;;;18.50;10.82;;;13.90;99.90;;;;;;6188622;23;20070;-88
2023/08/28 06:47:22;;;;;;;20.95;11.80;;;13.10;99.90;;;;;;6215065;23;20016;-90
2023/08/28 06:50:03;;;;;;;19.55;11.30;;;13.60;99.90;;;;;;6189477;23;20028;-91
2023/08/28 06:52:29;;;;;;;19.00;10.68;;;13.00;99.90;;;;;;6215666;23;20012;-91
2023/08/28 06:54:58;;;;;;;17.63;10.93;;;14.10;99.90;;;;;;6189536;23;20056;-90
2023/08/28 06:57:33;;;;;;;19.20;10.60;;;13.20;99.90;;;;;;6216565;23;20110;-90
2023/08/28 06:59:58;;;;;;;20.23;10.18;;;13.30;99.90;;;;;;6188064;23;20444;-90
2023/08/28 07:02:36;;;;;;;21.85;11.00;;;13.40;99.90;;;;;;6189800;23;20024;-90
2023/08/28 07:05:20;;;;;;;20.92;10.23;;;14.70;99.90;;;;;;6216227;23;20055;-90
2023/08/28 07:07:55;;;;;;;17.27;10.00;;;13.70;99.90;;;;;;6188541;23;20017;-90
2023/08/28 07:10:33;;;;;;;17.33;9.73;;;13.80;99.90;;;;;;6216352;23;20013;-90
2023/08/28 07:13:02;;;;;;;17.70;10.32;;;13.80;99.90;;;;;;6188725;23;20103;-90
2023/08/28 07:15:30;;;;;;;18.77;9.68;;;13.90;99.90;;;;;;6215588;23;20016;-90
2023/08/28 07:17:56;;;;;;;16.75;9.27;;;15.20;99.90;;;;;;6190304;23;20021;-90
2023/08/28 07:20:37;;;;;;;17.23;8.88;;;14.10;99.90;;;;;;6191119;23;20070;-90
2023/08/28 07:23:03;;;;;;;16.20;9.13;;;14.10;99.90;;;;;;6217463;23;20013;-89
2023/08/28 07:25:31;;;;;;;17.15;9.48;;;14.20;99.90;;;;;;6190258;23;20020;-91
2023/08/28 07:27:56;;;;;;;17.13;8.98;;;14.30;99.90;;;;;;6215083;23;20087;-90
2023/08/28 07:30:22;;;;;;;17.00;8.50;;;14.30;99.90;;;;;;6190087;23;20110;-90
2023/08/28 07:32:48;;;;;;;14.48;7.63;;;14.50;99.90;;;;;;6216313;23;20017;-90
2023/08/28 07:35:16;;;;;;;15.80;8.25;;;14.50;99.90;;;;;;6188683;23;20024;-90
2023/08/28 07:37:41;;;;;;;15.65;8.23;;;14.50;99.90;;;;;;6221215;23;20024;-90
2023/08/28 07:40:08;;;;;;;14.52;7.82;;;15.10;99.90;;;;;;6222613;23;20024;-91
2023/08/28 07:42:46;;;;;;;13.52;7.50;;;14.80;99.90;;;;;;6218871;23;20514;-91
2023/08/28 07:45:26;;;;;;;16.73;7.93;;;14.80;99.90;;;;;;6220201;23;20027;-92
2023/08/28 07:47:55;;;;;;;13.15;6.97;;;14.80;99.90;;;;;;6246207;23;20016;-91
2023/08/28 07:50:34;;;;;;;14.45;6.97;;;15.00;99.90;;;;;;6246989;23;20016;-91
2023/08/28 07:53:08;;;;;;;11.65;6.13;;;15.70;99.90;;;;;;6218987;23;20016;-90
2023/08/28 07:55:41;;;;;;;12.15;6.43;;;15.10;99.90;;;;;;6218990;23;20079;-90
2023/08/28 07:58:07;;;;;;;11.18;5.75;;;15.30;99.90;;;;;;6222399;23;20064;-90
2023/08/28 08:00:53;;;;;;;11.75;5.57;;;15.30;99.90;;;;;;6219632;23;20093;-90
2023/08/28 08:03:25;;;;;;;11.98;5.78;;;15.40;99.90;;;;;;6225492;23;20020;-90
2023/08/28 08:05:55;;;;;;;13.13;6.43;;;15.50;99.90;;;;;;6229985;22;20047;-88
2023/08/28 08:08:21;;;;;;;10.77;5.53;;;15.60;99.90;;;;;;6272286;23;20020;-89
2023/08/28 08:10:56;;;;;;;11.10;5.40;;;15.60;99.90;;;;;;6224569;23;20016;-90
2023/08/28 08:13:39;;;;;;;12.05;5.32;;;16.20;99.90;;;;;;6220367;23;20013;-89
2023/08/28 08:16:08;;;;;;;11.77;5.22;;;16.00;99.90;;;;;;6247122;23;20016;-90
2023/08/28 08:18:55;;;;;;;11.85;5.40;;;16.30;99.90;;;;;;6219562;23;20028;-90
2023/08/28 08:21:24;;;;;;;9.75;4.57;;;16.10;99.90;;;;;;6220142;23;20016;-90
2023/08/28 08:23:55;;;;;;;10.15;4.80;;;16.60;99.90;;;;;;6219034;23;20016;-89
2023/08/28 08:28:49;;;;;;;12.25;5.25;;;16.50;99.90;;;;;;6275581;22;20030;-89
2023/08/28 08:32:20;;;;;;;10.30;5.25;;;16.50;99.90;;;;;;6249042;22;20019;-90
2023/08/28 08:35:58;;;;;;;12.05;5.20;;;16.60;99.90;;;;;;6248971;22;20058;-89
2023/08/28 08:38:23;;;;;;;9.63;4.97;;;16.10;99.90;;;;;;6249484;22;20026;-90
2023/08/28 08:41:01;;;;;;;9.68;4.65;;;16.90;99.90;;;;;;6277401;22;20057;-90
2023/08/28 08:43:28;;;;;;;11.65;4.35;;;17.00;99.90;;;;;;6248480;22;20500;-89
2023/08/28 08:46:06;;;;;;;8.43;4.00;;;17.20;99.90;;;;;;6248091;22;20035;-89
2023/08/28 08:48:54;;;;;;;8.85;3.90;;;17.20;99.90;;;;;;6223161;22;20016;-89
2023/08/28 08:51:25;;;;;;;8.98;4.22;;;17.20;99.90;;;;;;6220440;23;20378;-89
2023/08/28 08:54:24;;;;;;;10.23;4.00;;;17.30;99.90;;;;;;6218787;23;20016;-89
2023/08/28 08:57:00;;;;;;;9.30;3.10;;;17.00;99.90;;;;;;6247120;23;20020;-89
2023/08/28 08:59:26;;;;;;;8.70;2.70;;;17.40;99.90;;;;;;6220068;23;20016;-89
2023/08/28 09:02:02;;;;;;;8.98;3.08;;;17.50;99.90;;;;;;6219979;23;20087;-89
2023/08/28 09:04:30;;;;;;;8.90;3.22;;;17.60;99.90;;;;;;6248399;23;20016;-89
2023/08/28 09:06:58;;;;;;;8.63;3.60;;;17.70;99.90;;;;;;6218424;23;20034;-89
2023/08/28 09:13:00;;;;;;;7.13;2.42;;;17.60;99.90;;;;;;6148993;23;20024;-89
2023/08/28 09:15:27;;;;;;;8.70;2.30;;;17.50;99.90;;;;;;6246426;22;20020;-89
2023/08/28 09:17:55;;;;;;;6.78;2.30;;;17.40;99.90;;;;;;6220995;23;20024;-89
2023/08/28 09:20:39;;;;;;;6.97;2.17;;;17.40;99.90;;;;;;6246535;23;20016;-89
2023/08/28 09:23:05;;;;;;;6.65;2.03;;;17.60;99.90;;;;;;6220326;23;20020;-89
2023/08/28 09:25:32;;;;;;;7.78;2.38;;;17.90;99.90;;;;;;6247461;23;20064;-89
2023/08/28 09:28:00;;;;;;;6.35;2.05;;;18.10;99.90;;;;;;6219685;23;20018;-90
2023/08/28 09:30:36;;;;;;;7.32;1.95;;;18.10;99.90;;;;;;6247487;23;20043;-88
2023/08/28 09:33:44;;;;;;;5.10;1.83;;;17.90;99.90;;;;;;6242882;23;20016;-87
2023/08/28 09:37:01;;;;;;;6.00;1.70;;;18.00;99.90;;;;;;6245790;23;20468;-88
2023/08/28 09:39:27;;;;;;;8.88;2.03;;;17.80;99.90;;;;;;6219871;23;20020;-87
2023/08/28 09:41:59;;;;;;;6.55;2.28;;;18.60;99.90;;;;;;6244857;23;20310;-87
2023/08/28 09:44:25;;;;;;;4.72;1.70;;;18.80;99.90;;;;;;6219200;23;20015;-87
2023/08/28 09:46:53;;;;;;;7.75;1.90;;;18.90;99.90;;;;;;6219777;23;20020;-87
2023/08/28 09:49:24;;;;;;;6.47;1.70;;;19.00;99.90;;;;;;6219512;23;20012;-87
2023/08/28 09:51:50;;;;;;;7.25;1.85;;;19.10;99.90;;;;;;6219635;23;20031;-87
2023/08/28 09:54:17;;;;;;;5.43;1.70;;;19.10;99.90;;;;;;6220444;23;20031;-88
2023/08/28 09:56:52;;;;;;;4.40;1.60;;;19.10;99.90;;;;;;6218300;23;20046;-87
2023/08/28 09:59:37;;;;;;;5.93;1.60;;;18.90;99.90;;;;;;6219412;23;20027;-87
2023/08/28 10:02:03;;;;;;;5.22;1.67;;;18.60;99.90;;;;;;6248385;23;20063;-87
2023/08/28 10:04:29;;;;;;;4.45;1.60;;;18.50;99.90;;;;;;6220673;23;20016;-87
2023/08/28 10:06:57;;;;;;;4.38;1.60;;;18.60;99.90;;;;;;6218819;22;20506;-87
2023/08/28 10:09:25;;;;;;;6.75;1.80;;;18.80;99.90;;;;;;6245780;23;20043;-87
2023/08/28 10:11:52;;;;;;;4.90;1.80;;;19.10;99.90;;;;;;6219141;23;20018;-87
2023/08/28 10:14:29;;;;;;;5.63;1.70;;;19.30;99.90;;;;;;6219416;23;20030;-88
2023/08/28 10:17:03;;;;;;;6.45;1.95;;;19.20;99.90;;;;;;6248252;23;20012;-87
2023/08/28 10:19:40;;;;;;;5.57;1.73;;;19.50;99.90;;;;;;6248828;23;20020;-87
2023/08/28 10:22:08;;;;;;;6.13;1.80;;;19.20;99.90;;;;;;6221486;23;20021;-87
2023/08/28 10:24:39;;;;;;;5.13;1.80;;;18.80;99.90;;;;;;6220340;23;20031;-87
2023/08/28 10:27:07;;;;;;;4.32;1.80;;;18.80;99.90;;;;;;6248397;23;20012;-87
2023/08/28 10:29:51;;;;;;;6.95;1.83;;;18.70;99.90;;;;;;6221807;23;20384;-87
2023/08/28 10:32:18;;;;;;;4.78;1.63;;;19.40;99.90;;;;;;6221696;23;20348;-88
2023/08/28 10:34:44;;;;;;;6.85;1.80;;;19.00;99.90;;;;;;6247517;23;20042;-88
2023/08/28 10:37:32;;;;;;;6.32;1.60;;;19.30;99.90;;;;;;6220703;23;20023;-87
2023/08/28 10:40:11;;;;;;;9.07;2.00;;;19.50;99.90;;;;;;6248152;23;20016;-88
2023/08/28 10:42:38;;;;;;;5.13;1.50;;;19.80;99.90;;;;;;6247545;23;20340;-88
2023/08/28 10:45:09;;;;;;;6.28;1.58;;;19.90;99.90;;;;;;6220329;23;20020;-88
2023/08/28 10:51:28;;;;;;;5.32;1.52;;;20.30;99.90;;;;;;6246944;23;20015;-88
2023/08/28 10:58:10;;;;;;;4.93;1.63;;;20.60;99.90;;;;;;6192742;23;20024;-88
2023/08/28 11:01:14;;;;;;;5.95;1.60;;;20.90;99.90;;;;;;6220216;23;20070;-89
2023/08/28 11:04:15;;;;;;;5.88;1.75;;;20.70;99.90;;;;;;6220539;23;20020;-89
2023/08/28 11:06:44;;;;;;;4.15;1.63;;;20.60;99.90;;;;;;6219681;23;20069;-89
2023/08/28 11:09:48;;;;;;;5.90;1.90;;;20.70;99.90;;;;;;6220840;23;20016;-88
2023/08/28 11:13:05;;;;;;;4.60;1.50;;;20.50;99.90;;;;;;6226794;23;20062;-88
2023/08/28 11:15:38;;;;;;;4.13;1.42;;;20.20;99.90;;;;;;6221401;23;20027;-88
2023/08/28 11:18:39;;;;;;;6.03;1.60;;;20.40;99.90;;;;;;6220498;23;20020;-89
2023/08/28 11:21:08;;;;;;;5.40;1.50;;;20.60;99.90;;;;;;6247654;23;20016;-88
2023/08/28 11:23:42;;;;;;;3.70;1.40;;;21.00;99.90;;;;;;6220479;23;20089;-88
2023/08/28 11:26:17;;;;;;;4.03;1.50;;;21.30;99.90;;;;;;6220744;23;20449;-89
2023/08/28 11:28:48;;;;;;;4.57;1.50;;;21.70;99.90;;;;;;6219013;23;20023;-88
2023/08/28 11:31:14;;;;;;;3.80;1.70;;;21.90;99.90;;;;;;6220534;23;20478;-89
2023/08/28 11:34:35;;;;;;;4.45;1.42;;;22.00;99.90;;;;;;6246561;23;20062;-88
2023/08/28 11:37:58;;;;;;;5.47;1.80;;;22.00;99.90;;;;;;6220091;23;20027;-89
2023/08/28 11:40:25;;;;;;;5.50;1.67;;;22.00;99.90;;;;;;6101274;23;20030;-88
2023/08/28 11:43:08;;;;;;;11.00;1.98;;;22.30;99.90;;;;;;6123614;23;20010;-88
2023/08/28 11:45:34;;;;;;;4.53;1.60;;;22.50;99.90;;;;;;6244679;23;20024;-88
2023/08/28 11:48:01;;;;;;;5.32;1.70;;;22.50;99.90;;;;;;6219341;23;20019;-89
2023/08/28 11:51:01;;;;;;;4.15;1.50;;;22.60;99.90;;;;;;6247906;23;20016;-89
2023/08/28 11:53:42;;;;;;;4.65;1.60;;;22.20;99.90;;;;;;6220015;23;20012;-89
2023/08/28 11:56:34;;;;;;;3.88;1.50;;;22.10;99.90;;;;;;6245864;23;20104;-89
2023/08/28 11:59:52;;;;;;;5.65;1.85;;;21.70;99.90;;;;;;6203015;23;20017;-89
2023/08/28 12:02:23;;;;;;;4.70;1.50;;;21.20;99.90;;;;;;6219801;23;20012;-89
2023/08/28 12:04:52;;;;;;;5.20;1.48;;;21.50;99.90;;;;;;6219953;23;20381;-88
2023/08/28 12:07:56;;;;;;;3.83;1.40;;;21.80;99.90;;;;;;6247081;23;20067;-89
2023/08/28 12:11:13;;;;;;;3.20;1.38;;;21.90;99.90;;;;;;6159008;23;20097;-89
2023/08/28 12:13:40;;;;;;;5.70;1.42;;;23.00;99.90;;;;;;6218871;23;20070;-90
2023/08/28 12:16:51;;;;;;;3.75;1.40;;;23.30;99.90;;;;;;6219076;23;20456;-89
2023/08/28 12:20:12;;;;;;;5.43;1.60;;;23.30;99.90;;;;;;6246524;23;20520;-90
2023/08/28 12:22:58;;;;;;;3.42;1.40;;;23.10;99.90;;;;;;6219795;22;20087;-88
2023/08/28 12:26:15;;;;;;;5.32;1.48;;;22.50;99.90;;;;;;6218995;22;20024;-89
2023/08/28 12:28:47;;;;;;;2.20;1.30;;;21.60;99.90;;;;;;6245859;23;20027;-88
2023/08/28 12:33:48;;;;;;;5.07;1.38;;;21.30;99.90;;;;;;6246899;22;20024;-88
2023/08/28 12:37:03;;;;;;;4.05;1.42;;;21.50;99.90;;;;;;6246087;23;20022;-89
2023/08/28 12:39:28;;;;;;;;;;;21.70;99.90;;;;;;6218257;22;20024;-87
2023/08/28 12:42:20;;;;;;;3.13;1.40;;;21.70;99.90;;;;;;6221023;23;20343;-90
2023/08/28 12:45:00;;;;;;;4.28;1.40;;;21.10;99.90;;;;;;6246073;23;20020;-89
2023/08/28 12:47:37;;;;;;;4.57;1.40;;;21.40;99.90;;;;;;6247443;23;20070;-88
2023/08/28 12:50:11;;;;;;;8.75;1.60;;;21.60;99.90;;;;;;6220043;23;20448;-88
2023/08/28 12:52:43;;;;;;;4.82;1.60;;;21.80;99.90;;;;;;6219212;23;20051;-87
2023/08/28 12:57:50;;;;;;;4.22;1.40;;;22.30;99.90;;;;;;6246419;22;20020;-90
2023/08/28 13:00:25;;;;;;;5.97;1.60;;;22.60;99.90;;;;;;6218322;22;20023;-90
2023/08/28 13:02:56;;;;;;;5.32;1.60;;;22.50;99.90;;;;;;6247190;23;20082;-90
2023/08/28 13:05:22;;;;;;;3.03;1.30;;;23.30;99.90;;;;;;6246522;23;20016;-88
2023/08/28 13:08:01;;;;;;;5.07;1.50;;;23.40;99.90;;;;;;6219248;23;20459;-89
2023/08/28 13:10:42;;;;;;;3.55;1.30;;;23.30;99.90;;;;;;6220190;23;20020;-89
2023/08/28 13:13:16;;;;;;;6.40;1.60;;;23.00;99.90;;;;;;6220855;23;20091;-88
2023/08/28 13:15:47;;;;;;;5.63;1.40;;;22.40;99.90;;;;;;6221413;23;20024;-88
2023/08/28 13:18:27;;;;;;;4.22;1.40;;;21.90;99.90;;;;;;6246643;23;20081;-89
2023/08/28 13:20:52;;;;;;;4.97;1.50;;;21.60;99.90;;;;;;6219354;22;20077;-88
2023/08/28 13:23:44;;;;;;;7.63;1.60;;;21.20;99.90;;;;;;6251794;22;20098;-89
2023/08/28 13:26:30;;;;;;;2.83;1.40;;;20.80;99.90;;;;;;6250859;22;20015;-88
2023/08/28 13:28:57;;;;;;;4.90;1.70;;;20.90;99.90;;;;;;6276863;22;20027;-88
2023/08/28 13:31:41;;;;;;;4.40;1.50;;;20.70;99.90;;;;;;6249384;22;20015;-88
2023/08/28 13:34:22;;;;;;;4.28;1.50;;;20.40;99.90;;;;;;6249663;22;20064;-88
2023/08/28 13:37:09;;;;;;;6.72;1.50;;;20.70;99.90;;;;;;6250895;22;20023;-88
2023/08/28 13:39:38;;;;;;;7.10;1.60;;;20.80;99.90;;;;;;6244793;22;20019;-89
2023/08/28 13:43:01;;;;;;;3.45;1.50;;;20.90;99.90;;;;;;6246422;23;20015;-88
2023/08/28 13:46:00;;;;;;;5.40;1.75;;;20.80;99.90;;;;;;6211798;22;20011;-89
2023/08/28 13:51:02;;;;;;;3.55;1.38;;;20.80;99.90;;;;;;6275238;22;20023;-88
2023/08/28 13:53:50;;;;;;;3.72;1.30;;;20.80;99.90;;;;;;6245005;22;20336;-89
2023/08/28 13:56:16;;;;;;;4.70;1.55;;;20.50;99.90;;;;;;6246868;23;20103;-89
2023/08/28 14:01:40;;;;;;;5.57;1.67;;;20.80;99.90;;;;;;6278278;22;20332;-88
2023/08/28 14:04:06;;;;;;;3.85;1.50;;;21.20;99.90;;;;;;6280843;22;20020;-89
2023/08/28 14:06:50;;;;;;;5.85;1.40;;;21.30;99.90;;;;;;6253119;22;20133;-90
2023/08/28 14:09:32;;;;;;;4.35;1.48;;;21.20;99.90;;;;;;6252542;22;20370;-89
2023/08/28 14:12:12;;;;;;;3.25;1.20;;;21.10;99.90;;;;;;6253312;22;20020;-88
2023/08/28 14:14:46;;;;;;;6.68;1.45;;;20.90;99.90;;;;;;6238648;22;20024;-89
2023/08/28 14:18:02;;;;;;;6.38;1.58;;;20.70;99.90;;;;;;6260730;22;20270;-88